Terminal Aerodrome Forecast
Issued by NWS La Crosse, WI

Home | Current Version | Previous Version | Text Only | Print | Product List | Glossary On
Versions: 1 2 3 4 5 6 7 8 9 10 11 12 13 14 15 16 17 18 19 20 21 22 23 24 25 26 27 28 29 30 31 32 33 34 35 36 37 38 39 40 41 42 43 44 45 46 47 48 49 50
000
FTUS43 KARX 231231 AAA
TAFLSE
TAF AMD
KLSE 231231Z 2313/2412 13005KT P6SM BCFG SCT002 BKN080
     FM231400 14006KT P6SM VCSH SCT008 BKN080
     FM231800 17007KT P6SM BKN100
     FM240200 15004KT P6SM SCT150=

USA.gov is the U.S. government's official web portal to all federal, state and local government web resources and services.